Tiempo atmosférico en la estación meteorológica de Hijar, Teruel (300 m.)



Fecha
DESCASC
Temp. máxima en grados centígrados (hora)
DESCASC
Temp. mínima en grados centígrados (hora)
DESCASC
Temp. media en grados centígrados
DESCASC
Racha de viento máxima en m/sg (hora)
DESCASC
Velocidad máxima media en intervalos de 10 minutos(hora)
DESCASC
Precipitaciones diarias en mm
DESCASC
Precipitaciones de 00:00 a 06:00 en mm
DESCASC
Precipitaciones de 06:00 a 12:00 en mm
DESCASC
Precipitaciones de 12:00 a 18:00 en mm
DESCASC
Precipitaciones de 18:00 a 24:00 en mm
DESCASC
29-10-2020 23.3 (14:20) 9.5 (07:40) 16.4 6.94 (09:50) 4.72 (10:00) 0 0 0 0 0
28-10-2020 23.1 (14:40) 10.1 (06:00) 16.6 8.33 (15:50) 3.61 (23:40) 0 0 0 0 0
27-10-2020 21.4 (14:40) 9.1 (00:00) 15.3 14.72 (10:00) 8.33 (10:20) 0 0 0 0 0
26-10-2020 18.1 (13:50) 8.4 (00:00) 13.3 14.44 (10:20) 7.78 (01:30) 0 0 0 0 0
25-10-2020 22.9 (14:20) 9 (00:00) 15.9 16.67 (13:00) 10.28 (13:40) 0 0 0 0 0
24-10-2020 23.6 (14:40) 12 (00:00) 17.8 8.89 (11:00) 6.11 (07:40) 0 0 0 0 0
23-10-2020 23 (15:20) 11.5 (00:00) 17.3 12.22 (11:30) 8.61 (11:30) 0 0 0 0 0
22-10-2020 19.7 (17:40) 14.6 (00:00) 17.2 7.22 (17:30) 4.44 (17:50) 0.2 0 0 0.2 0
21-10-2020 27.3 (14:10) 16.5 (00:00) 21.9 14.72 (02:10) 9.72 (02:00) 0 0 0 0 0
20-10-2020 23.2 (16:00) 12.1 (00:00) 17.7 17.5 (19:20) 12.22 (18:10) 0 0 0 0 0
19-10-2020 24.1 (16:20) 5 (00:00) 14.6 10.28 (17:10) 7.22 (17:10) 0 0 0 0 0
18-10-2020 21.1 (15:50) 5.9 (00:00) 13.5 6.67 (00:30) 5.28 (00:30) 0 0 0 0 0
17-10-2020 21 (16:10) 3.7 (00:00) 12.4 5.83 (16:00) 4.44 (23:40) 0 0 0 0 0
16-10-2020 19.1 (15:10) 7.6 (00:00) 13.4 10.28 (10:30) 5.83 (03:00) 0 0 0 0 0
15-10-2020 18.6 (15:20) 8.8 (00:00) 13.7 14.17 (11:10) 6.94 (10:00) 0 0 0 0 0
14-10-2020 18.5 (14:00) 9.7 (00:00) 14.1 14.17 (14:40) 5.56 (23:59) 0.2 0 0.2 0 0
13-10-2020 22.8 (15:40) 10.3 (00:00) 16.5 11.39 (13:50) 6.11 (00:10) 0 0 0 0 0
12-10-2020 19.6 (16:10) 10.2 (00:00) 14.9 14.44 (03:10) 8.33 (01:20) 0 0 0 0 0
11-10-2020 19.8 (14:50) 10.6 (00:00) 15.2 17.22 (17:30) 8.33 (23:50) 0 0 0 0 0
10-10-2020 25.8 (15:10) 13.5 (00:00) 19.6 14.17 (22:40) 8.06 (22:50) 0 0 0 0 0
09-10-2020 25.4 (16:40) 14 (00:00) 19.7 6.94 (23:59) 3.33 (23:50) 0 0 0 0 0
08-10-2020 25.8 (16:00) 11.6 (00:00) 18.7 7.22 (00:50) 4.44 (02:30) 0 0 0 0 0
07-10-2020 26.7 (14:20) 15.8 (00:00) 21.3 11.94 (15:30) 5.56 (22:20) 0 0 0 0 0
06-10-2020 29.2 (16:40) 11.8 (00:00) 20.5 9.72 (11:10) 5.83 (13:50) 0 0 0 0 0
05-10-2020 22.8 (16:30) 8.3 (00:00) 15.5 7.5 (13:40) 3.89 (23:59) 0 0 0 0 0
04-10-2020 22.2 (14:20) 10.9 (00:00) 16.6 20 (17:20) 10.28 (16:40) 0 0 0 0 0
03-10-2020 22.1 (15:40) 9.5 (00:00) 15.8 17.22 (12:10) 10.28 (11:20) 0 0 0 0 0
02-10-2020 21.4 (10:10) 9.3 (00:00) 15.3 16.11 (10:10) 10 (10:20) 4 0 0.4 3.6 0
01-10-2020 28 (14:40) 11.8 (08:10) 19.9 11.39 (10:40) 6.11 (10:40) 0 0 0 0 0

Gráficas

Temp. máximas Temp. mínimas Temp. medias Precipitaciones Rachas de viento máximas Velocidades máximas media en intervalos de 10 minutos

Datos horarios

Fecha y hora oficial Temperatura (ºC) Velocidad del viento (km/h) Dirección del viento Racha (km/h) Dirección de racha Precipitación (mm) Presión (hPa) Tendencia (hPa) Humedad (%)
2020-10-30 23:00:00 11.8 4 Sudoeste 10 Sudoeste 0 -- -- 69
2020-10-30 22:00:00 12 5 Sudoeste 13 Sudoeste 0 -- -- 69
2020-10-30 21:00:00 12.8 8 Sudoeste 12 Sudoeste 0 -- -- 67
2020-10-30 20:00:00 14.1 7 Sudoeste 11 Sudoeste 0 -- -- 63
2020-10-30 19:00:00 16.2 4 Sudoeste 6 Sudoeste 0 -- -- 57
2020-10-30 18:00:00 18.9 4 Sudeste 5 Sudeste 0 -- -- 50
2020-10-30 17:00:00 20.6 5 Este 10 Nordeste 0 -- -- 48
2020-10-30 16:00:00 21.1 4 Este 9 Este 0 -- -- 47
2020-10-30 15:00:00 21.9 4 Sudeste 12 Este 0 -- -- 46
2020-10-30 14:00:00 20.8 5 Este 14 Nordeste 0 -- -- 50
2020-10-30 13:00:00 20 6 Nordeste 13 Nordeste 0 -- -- 52
2020-10-30 12:00:00 18.5 3 Norte 12 Nordeste 0 -- -- 55
2020-10-30 11:00:00 17.1 4 Norte 6 Norte 0 -- -- 58
2020-10-30 10:00:00 15 3 Oeste 10 Oeste 0 -- -- 62
2020-10-30 09:00:00 10.8 6 Sudoeste 10 Sudoeste 0 -- -- 73
2020-10-30 08:00:00 7.8 6 Sudoeste 9 Sudoeste 0 -- -- 85
2020-10-30 07:00:00 7.5 3 Sudoeste 9 Sudoeste 0 -- -- 85
2020-10-30 06:00:00 7.9 6 Sudoeste 10 Sudoeste 0 -- -- 86
2020-10-30 05:00:00 8.8 7 Sudoeste 10 Sudoeste 0 -- -- 85
2020-10-30 04:00:00 9.5 5 Sudoeste 8 Sudoeste 0 -- -- 86
2020-10-30 03:00:00 9.8 4 Este 6 Este 0 -- -- 82
2020-10-30 02:00:00 10.7 3 Sudeste 10 Sudoeste 0 -- -- 80
2020-10-30 01:00:00 10.4 7 Sudoeste 12 Sudoeste 0 -- -- 80
2020-10-30 00:00:00 11.3 8 Sudoeste 12 Sudoeste 0 -- -- 77
2020-10-29 23:00:00 12 7 Sudoeste 13 Sudoeste 0 -- -- 75
2020-10-29 22:00:00 12.5 7 Sudoeste 12 Sudoeste 0 -- -- 73
2020-10-29 21:00:00 13.4 8 Sudoeste 12 Sudoeste 0 -- -- 69
2020-10-29 20:00:00 14.6 7 Sudoeste 9 Sudoeste 0 -- -- 64
2020-10-29 19:00:00 17 0 Calma 7 Sudeste 0 -- -- 57
2020-10-29 18:00:00 19.2 3 Este 5 Nordeste 0 -- -- 53
2020-10-29 17:00:00 20.8 3 Nordeste 10 Nordeste 0 -- -- 50
2020-10-29 16:00:00 21.6 4 Nordeste 14 Nordeste 0 -- -- 48
2020-10-29 15:00:00 22.9 3 Norte 13 Noroeste 0 -- -- 45
2020-10-29 14:00:00 23 4 Noroeste 14 Norte 0 -- -- 45
2020-10-29 13:00:00 21.7 3 Norte 12 Norte 0 -- -- 49
2020-10-29 12:00:00 21.7 4 Norte 14 Norte 0 -- -- 49
2020-10-29 11:00:00 20.6 4 Oeste 21 Oeste 0 -- -- 51
2020-10-29 10:00:00 17 17 Sudoeste 25 Sudoeste 0 -- -- 61
2020-10-29 09:00:00 12.7 9 Sudoeste 11 Sudoeste 0 -- -- 76
2020-10-29 08:00:00 9.6 3 Sudeste 5 Sudeste 0 -- -- 87
2020-10-29 07:00:00 9.8 4 Sudeste 8 Oeste 0 -- -- 86
2020-10-29 06:00:00 10.3 5 Oeste 9 Oeste 0 -- -- 85
2020-10-29 05:00:00 10.1 4 Sudoeste 13 Sudoeste 0 -- -- 84
2020-10-29 04:00:00 10.3 11 Sudoeste 15 Sudoeste 0 -- -- 84
2020-10-29 03:00:00 10.4 5 Sudoeste -- -- 0 -- -- 83
2020-10-29 02:00:00 11.3 0 Calma 8 Sudeste 0 -- -- 79
2020-10-29 01:00:00 12.4 6 Este 14 Sudoeste 0 -- -- 73
2020-10-29 00:00:00 14.1 12 Sudoeste 17 Sudoeste 0 -- -- 71
2020-10-28 23:00:00 14.5 12 Sudoeste 20 Sudoeste 0 -- -- 68
2020-10-28 22:00:00 14.2 10 Sudoeste 13 Sudoeste 0 -- -- 69
2020-10-28 21:00:00 14.1 6 Sudoeste 10 Sudoeste 0 -- -- 68
2020-10-28 20:00:00 15.7 3 Sur 9 Sudoeste 0 -- -- 62
2020-10-28 19:00:00 17.4 3 Sudeste 8 Noroeste 0 -- -- 59
2020-10-28 18:00:00 19.6 4 Norte 15 Noroeste 0 -- -- 52
2020-10-28 17:00:00 21.7 6 Noroeste 25 Oeste 0 -- -- 46
2020-10-28 16:00:00 22.6 9 Noroeste 30 Noroeste 0 -- -- 44
2020-10-28 15:00:00 22.6 6 Noroeste 16 Noroeste 0 -- -- 45
2020-10-28 14:00:00 22.6 4 Norte 15 Noroeste 0 -- -- 45
2020-10-28 13:00:00 21.1 4 Norte 10 Norte 0 -- -- 48
2020-10-28 12:00:00 18.9 3 Noroeste 11 Nordeste 0 -- -- 53
2020-10-28 11:00:00 17.5 2 Norte 4 Nordeste 0 -- -- 57
2020-10-28 10:00:00 15.6 0 Calma 4 Oeste 0 -- -- 61
2020-10-28 09:00:00 12 3 Oeste 11 Sudoeste 0 -- -- 71
2020-10-28 08:00:00 10.9 8 Sudoeste 14 Sudoeste 0 -- -- 72
2020-10-28 07:00:00 10.2 9 Sudoeste 13 Sudoeste 0 -- -- 74
2020-10-28 06:00:00 10.1 8 Sudoeste 13 Oeste 0 -- -- 73
2020-10-28 05:00:00 11.2 10 Oeste 15 Sudoeste 0 -- -- 70
2020-10-28 04:00:00 11.7 9 Sudoeste 13 Sudoeste 0 -- -- 67
2020-10-28 03:00:00 12.3 9 Sudoeste 11 Sudoeste 0 -- -- 64
2020-10-28 02:00:00 12.3 9 Sudoeste 13 Oeste 0 -- -- 64
2020-10-28 01:00:00 11.7 10 Sudoeste 14 Sudoeste 0 -- -- 66
2020-10-28 00:00:00 11.7 6 Sudoeste 15 Sudoeste 0 -- -- 65
2020-10-27 23:00:00 12.8 10 Oeste 19 Oeste 0 -- -- 62
2020-10-27 22:00:00 13.2 9 Sudoeste 17 Oeste 0 -- -- 61
2020-10-27 21:00:00 14.4 13 Oeste 26 Oeste 0 -- -- 56
2020-10-27 20:00:00 14.8 6 Oeste 13 Oeste 0 -- -- 53
2020-10-27 19:00:00 15.8 4 Noroeste 15 Noroeste 0 -- -- 50
2020-10-27 18:00:00 17.2 3 Noroeste 15 Norte 0 -- -- 46
2020-10-27 17:00:00 19.3 4 Noroeste 20 Norte 0 -- -- 41
2020-10-27 16:00:00 20.3 8 Noroeste 24 Noroeste 0 -- -- 38
2020-10-27 15:00:00 20.9 8 Noroeste 29 Oeste 0 -- -- 36
2020-10-27 14:00:00 21.1 9 Oeste 33 Oeste 0 -- -- 34
2020-10-27 13:00:00 19.6 13 Oeste 36 Oeste 0 -- -- 36
2020-10-27 12:00:00 17.6 19 Oeste 41 Noroeste 0 -- -- 40
2020-10-27 11:00:00 14.2 25 Oeste 52 Oeste 0 -- -- 49
2020-10-27 10:00:00 14.2 25 Oeste 53 Oeste 0 -- -- 50
2020-10-27 09:00:00 11.5 21 Oeste 37 Oeste 0 -- -- 59
2020-10-27 08:00:00 10.5 16 Oeste 35 Oeste 0 -- -- 61
2020-10-27 07:00:00 10.2 19 Oeste 36 Oeste 0 -- -- 61
2020-10-27 06:00:00 9.5 17 Oeste 26 Oeste 0 -- -- 64
2020-10-27 05:00:00 9.4 6 Oeste 23 Oeste 0 -- -- 63
2020-10-27 04:00:00 10.3 17 Oeste 32 Sudoeste 0 -- -- 61
2020-10-27 03:00:00 10.5 19 Oeste 37 Oeste 0 -- -- 60
2020-10-27 02:00:00 11 25 Oeste 37 Oeste 0 -- -- 57
2020-10-27 01:00:00 10.5 20 Oeste 32 Oeste 0 -- -- 56
2020-10-27 00:00:00 9.2 7 Oeste 14 Oeste 0 -- -- 59
2020-10-26 23:00:00 10 10 Sudoeste 24 Oeste 0 -- -- 58
2020-10-26 22:00:00 10.9 16 Oeste 26 Oeste 0 -- -- 55
2020-10-26 21:00:00 11.6 19 Oeste 27 Oeste 0 -- -- 52
2020-10-26 20:00:00 13 14 Oeste 23 Oeste 0 -- -- 49
2020-10-26 19:00:00 13 13 Oeste 22 Oeste 0 -- -- 49
2020-10-26 18:00:00 13.6 7 Noroeste 26 Noroeste 0 -- -- 47
2020-10-26 17:00:00 15 8 Noroeste 25 Norte 0 -- -- 44
2020-10-26 16:00:00 16.2 9 Noroeste 50 Oeste 0 -- -- 42
2020-10-26 15:00:00 17.4 15 Noroeste 45 Oeste 0 -- -- 39
2020-10-26 14:00:00 17.8 16 Noroeste 44 Oeste 0 -- -- 38
2020-10-26 13:00:00 16.6 15 Noroeste 44 Oeste 0 -- -- 39
2020-10-26 12:00:00 16.3 17 Noroeste 49 Oeste 0 -- -- 40
2020-10-26 11:00:00 15.4 21 Oeste 52 Oeste 0 -- -- 44
2020-10-26 10:00:00 14.1 18 Oeste 43 Oeste 0 -- -- 48
2020-10-26 09:00:00 11.6 27 Oeste 45 Noroeste 0 -- -- 55
2020-10-26 08:00:00 9 19 Oeste 33 Oeste 0 -- -- 65
2020-10-26 07:00:00 8.5 15 Oeste 26 Oeste 0 -- -- 70
2020-10-26 06:00:00 9.3 17 Oeste 30 Oeste 0 -- -- 74
2020-10-26 05:00:00 10.7 15 Oeste 32 Oeste 0 -- -- 67
2020-10-26 04:00:00 11.4 18 Oeste 30 Oeste 0 -- -- 62
2020-10-26 03:00:00 11.6 18 Oeste 35 Oeste 0 -- -- 63
2020-10-26 02:00:00 12.5 21 Oeste 44 Oeste 0 -- -- 63
2020-10-26 01:00:00 13.3 23 Oeste 36 Oeste 0 -- -- 67
2020-10-26 00:00:00 13.7 23 Oeste 36 Oeste 0 -- -- 69
2020-10-25 23:00:00 14.2 18 Noroeste 44 Oeste 0 -- -- 67
2020-10-25 22:00:00 19 10 Sudoeste 23 Sudoeste 0 -- -- 48
2020-10-25 21:00:00 19.2 13 Sudoeste 24 Sudoeste 0 -- -- 47
2020-10-25 20:00:00 19.6 5 Oeste 23 Sudoeste 0 -- -- 42
2020-10-25 19:00:00 20 10 Sur 17 Sudoeste 0 -- -- 39
2020-10-25 18:00:00 20.7 10 Sudoeste 22 Oeste 0 -- -- 38
2020-10-25 17:00:00 21.3 13 Oeste 39 Oeste 0 -- -- 37
2020-10-25 16:00:00 21.7 18 Oeste 41 Oeste 0 -- -- 36
2020-10-25 15:00:00 22.8 19 Oeste 44 Oeste 0 -- -- 35
2020-10-25 14:00:00 21.8 27 Sudoeste 51 Sudoeste 0 -- -- 37
2020-10-25 13:00:00 22.2 31 Sudoeste 60 Oeste 0 -- -- 38
2020-10-25 12:00:00 19.8 26 Sudoeste 43 Sudoeste 0 -- -- 41
2020-10-25 11:00:00 20.3 16 Oeste 31 Oeste 0 -- -- 41
2020-10-25 10:00:00 18.8 4 Oeste 15 Sudoeste 0 -- -- 47
2020-10-25 09:00:00 15.4 6 Sudoeste 15 Sudoeste 0 -- -- 52
2020-10-25 08:00:00 12 9 Sudoeste 23 Sudoeste 0 -- -- 62
2020-10-25 07:00:00 12.2 13 Oeste 27 Oeste 0 -- -- 63
2020-10-25 06:00:00 10.1 18 Sudoeste 30 Sudoeste 0 -- -- 72
2020-10-25 05:00:00 9 5 Sudoeste 10 Sudoeste 0 -- -- 76
2020-10-25 04:00:00 9.6 4 Sudoeste 8 Sudoeste 0 -- -- 73
2020-10-25 03:00:00 11.6 2 Sudeste 8 Nordeste 0 -- -- 67
2020-10-25 02:00:00 12 4 Oeste 9 Oeste 0 -- -- 68
2020-10-25 01:00:00 13.8 5 Norte 19 Oeste 0 -- -- 56
2020-10-25 00:00:00 13.4 9 Oeste 15 Oeste 0 -- -- 57
2020-10-24 23:00:00 13.7 0 Calma 22 Oeste 0 -- -- 57
2020-10-24 22:00:00 14 10 Sudoeste 16 Sudoeste 0 -- -- 55
2020-10-24 21:00:00 15.3 5 Sudoeste 13 Oeste 0 -- -- 51
2020-10-24 20:00:00 16.7 7 Sur 12 Sudoeste 0 -- -- 48
2020-10-24 19:00:00 18.8 4 Sudeste 9 Este 0 -- -- 43
2020-10-24 18:00:00 20.2 6 Nordeste 17 Este 0 -- -- 41
2020-10-24 17:00:00 22 9 Nordeste 18 Nordeste 0 -- -- 37
2020-10-24 16:00:00 23.6 6 Norte 20 Norte 0 -- -- 35
2020-10-24 15:00:00 23.2 5 Noroeste 21 Noroeste 0 -- -- 36
2020-10-24 14:00:00 22.1 6 Noroeste 23 Norte 0 -- -- 39
2020-10-24 13:00:00 21.4 8 Oeste 25 Oeste 0 -- -- 40
2020-10-24 12:00:00 19.6 14 Oeste 31 Oeste 0 -- -- 44
2020-10-24 11:00:00 18 18 Oeste 32 Oeste 0 -- -- 48
2020-10-24 10:00:00 15.1 11 Oeste 22 Oeste 0 -- -- 57
2020-10-24 09:00:00 12.2 8 Oeste 28 Sudoeste 0 -- -- 66
2020-10-24 08:00:00 12.2 22 Sudoeste 31 Oeste 0 -- -- 66
2020-10-24 07:00:00 12.5 18 Sudoeste 31 Oeste 0 -- -- 64
2020-10-24 06:00:00 12.6 13 Sudoeste 27 Oeste 0 -- -- 63
2020-10-24 05:00:00 13.3 20 Oeste 29 Oeste 0 -- -- 61
2020-10-24 04:00:00 12.5 10 Oeste 21 Sudoeste 0 -- -- 63
2020-10-24 03:00:00 12.9 15 Oeste 24 Oeste 0 -- -- 62
2020-10-24 02:00:00 13 13 Sudoeste 20 Sudoeste 0 -- -- 60
2020-10-24 01:00:00 13.5 13 Sudoeste 28 Oeste 0 -- -- 59
2020-10-24 00:00:00 14 19 Oeste 30 Oeste 0 -- -- 58
2020-10-23 23:00:00 14.3 19 Oeste 28 Oeste 0 -- -- 57
2020-10-23 22:00:00 14.7 16 Sudoeste 25 Oeste 0 -- -- 54
2020-10-23 21:00:00 15.4 16 Sudoeste 27 Sudoeste 0 -- -- 50
2020-10-23 20:00:00 15.9 15 Sudoeste 27 Oeste 0 -- -- 48
2020-10-23 19:00:00 18.1 17 Oeste 28 Oeste 0 -- -- 43
2020-10-23 18:00:00 20.4 9 Noroeste 29 Noroeste 0 -- -- 39
2020-10-23 17:00:00 21 9 Noroeste 31 Norte 0 -- -- 37
2020-10-23 16:00:00 20.6 5 Noroeste 34 Oeste 0 -- -- 39
2020-10-23 15:00:00 22.4 9 Noroeste 31 Oeste 0 -- -- 36
2020-10-23 14:00:00 20.3 14 Oeste 32 Oeste 0 -- -- 41
2020-10-23 13:00:00 21.1 10 Noroeste 36 Oeste 0 -- -- 43
2020-10-23 12:00:00 20 23 Oeste 44 Sudoeste 0 -- -- 44
2020-10-23 11:00:00 17.9 26 Oeste 41 Oeste 0 -- -- 54
2020-10-23 10:00:00 15.6 14 Oeste 29 Sudoeste 0 -- -- 66
2020-10-23 09:00:00 11.8 10 Sudoeste 15 Sudoeste 0 -- -- 85
2020-10-23 08:00:00 12.5 8 Sudoeste 14 Sudoeste 0 -- -- 83
2020-10-23 07:00:00 12.9 3 Sudoeste 5 Sudoeste 0 -- -- 94
2020-10-23 06:00:00 13.4 2 Nordeste 12 Oeste 0 -- -- 95
2020-10-23 05:00:00 13.3 3 Sudeste 10 Sudoeste 0 -- -- 94
2020-10-23 04:00:00 14.3 3 Sudeste 8 Sudoeste 0 -- -- 93
2020-10-23 03:00:00 14.9 3 Sudoeste 11 Sudoeste 0 -- -- 93
2020-10-23 02:00:00 15.8 10 Oeste 13 Oeste 0 -- -- 93
2020-10-23 01:00:00 15.8 6 Oeste 10 Sudoeste 0 -- -- 92
2020-10-23 00:00:00 15.8 7 Oeste 15 Oeste 0 -- -- 92
2020-10-22 23:00:00 16 9 Sudoeste 13 Sudoeste 0 -- -- 93
2020-10-22 22:00:00 16.1 2 Sudoeste 6 Nordeste 0 -- -- 89
2020-10-22 21:00:00 17.1 4 Norte 15 Este 0 -- -- 85
2020-10-22 20:00:00 18 9 Nordeste 13 Nordeste 0 -- -- 82
2020-10-22 19:00:00 19.4 8 Sudeste 23 Sudeste 0 -- -- 77
2020-10-22 18:00:00 19.6 16 Sudeste 26 Sudeste 0 -- -- 77
2020-10-22 17:00:00 19.4 10 Este 18 Este 0.2 -- -- 86
2020-10-22 16:00:00 19.4 8 Este 12 Este 0 -- -- 84
2020-10-22 15:00:00 19.4 5 Nordeste 11 Nordeste 0 -- -- 82
2020-10-22 14:00:00 19 7 Este 12 Este 0 -- -- 81
2020-10-22 13:00:00 18 4 Nordeste 11 Nordeste 0 -- -- 74
2020-10-22 12:00:00 18.2 2 Nordeste -- -- 0 -- -- 69
2020-10-22 11:00:00 17.2 4 Oeste 9 Sudoeste 0 -- -- 72
2020-10-22 10:00:00 15.4 2 Sudoeste 6 Oeste 0 -- -- 74
2020-10-22 09:00:00 14.6 4 Sudoeste 8 Oeste 0 -- -- 74
2020-10-22 08:00:00 14.8 4 Sur 11 Oeste 0 -- -- 73
2020-10-22 07:00:00 14.9 4 Sur 8 Sur 0 -- -- 72
2020-10-22 06:00:00 15.2 2 Oeste 10 Sudoeste 0 -- -- 71
2020-10-22 05:00:00 15.5 4 Sudoeste 9 Oeste 0 -- -- 69
2020-10-22 04:00:00 15.8 4 Sudoeste 9 Oeste 0 -- -- 69
2020-10-22 03:00:00 16.6 3 Nordeste 9 Oeste 0 -- -- 61
2020-10-22 02:00:00 17.6 0 Calma 8 Este 0 -- -- 51
2020-10-22 01:00:00 18.1 4 Sur 5 Sudoeste 0 -- -- 49
2020-10-22 00:00:00 18.9 3 Noroeste 15 Sudoeste 0 -- -- 47
2020-10-21 23:00:00 19.2 10 Sudoeste 14 Sudoeste 0 -- -- 46
2020-10-21 22:00:00 19.8 8 Sudoeste 10 Sudoeste 0 -- -- 44
2020-10-21 21:00:00 21 6 Sudoeste 10 Sudoeste 0 -- -- 40
2020-10-21 20:00:00 22.6 6 Sudoeste 25 Sudoeste 0 -- -- 37
2020-10-21 19:00:00 24.4 18 Sudoeste 34 Sudoeste 0 -- -- 33
2020-10-21 18:00:00 26.2 26 Sudoeste 38 Sudoeste 0 -- -- 30
2020-10-21 17:00:00 26.3 20 Sudoeste 36 Sudoeste 0 -- -- 31
2020-10-21 16:00:00 27 12 Sudoeste 41 Sudoeste 0 -- -- 31
2020-10-21 15:00:00 25.9 24 Sudoeste 39 Oeste 0 -- -- 32
2020-10-21 14:00:00 26.8 6 Nordeste 15 Oeste 0 -- -- 34
2020-10-21 13:00:00 26.1 7 Oeste 19 Oeste 0 -- -- 35
2020-10-21 12:00:00 24.7 13 Sudoeste 24 Sudoeste 0 -- -- 39
2020-10-21 11:00:00 21.3 7 Sudoeste 15 Noroeste 0 -- -- 56
2020-10-21 10:00:00 17.5 4 Sudoeste 13 Sur 0 -- -- 70
2020-10-21 09:00:00 16.8 4 Este 20 Sudeste 0 -- -- 77
2020-10-21 08:00:00 17.5 12 Sudeste 22 Este 0 -- -- 63
2020-10-21 07:00:00 18 11 Este 20 Este 0 -- -- 63
2020-10-21 06:00:00 19.4 12 Este 30 Sudeste 0 -- -- 56
2020-10-21 05:00:00 19.4 19 Sudeste 29 Este 0 -- -- 54
2020-10-21 04:00:00 18.3 15 Este 32 Este 0 -- -- 62
2020-10-21 03:00:00 19.3 15 Este 53 Sudeste 0 -- -- 54
2020-10-21 02:00:00 19.3 35 Sudeste 51 Sudeste 0 -- -- 60
2020-10-21 01:00:00 19.4 26 Sudeste 43 Sudeste 0 -- -- 60
2020-10-21 00:00:00 19 13 Este 37 Este 0 -- -- 64
2020-10-20 23:00:00 19.4 24 Este 45 Este 0 -- -- 64
2020-10-20 22:00:00 19.4 32 Sudeste 51 Sudeste 0 -- -- 63
2020-10-20 21:00:00 19.5 28 Sudeste 53 Sudeste 0 -- -- 62
2020-10-20 20:00:00 19.9 27 Sudeste 63 Sudeste 0 -- -- 62
2020-10-20 19:00:00 20.6 41 Sudeste 61 Sudeste 0 -- -- 52
2020-10-20 18:00:00 21.6 39 Sudeste 51 Sudeste 0 -- -- 51
2020-10-20 17:00:00 22.5 33 Sudeste 49 Sudeste 0 -- -- 50
2020-10-20 16:00:00 23.2 22 Sudeste 42 Sudeste 0 -- -- 48
2020-10-20 15:00:00 22.4 28 Sudeste 41 Sudeste 0 -- -- 50
2020-10-20 14:00:00 21.6 29 Sudeste 41 Sudeste 0 -- -- 52
2020-10-20 13:00:00 20.7 25 Sudeste 41 Sudeste 0 -- -- 54
2020-10-20 12:00:00 17.6 8 Este 26 Sudeste 0 -- -- 64
2020-10-20 11:00:00 14.7 3 Oeste 12 Sudoeste 0 -- -- 79
2020-10-20 10:00:00 13.6 6 Sudoeste 12 Oeste 0 -- -- 79
2020-10-20 09:00:00 12.8 7 Sudoeste 12 Sudoeste 0 -- -- 82
2020-10-20 08:00:00 12.8 0 Calma 6 Noroeste 0 -- -- 82
2020-10-20 07:00:00 12.6 2 Sur 6 Norte 0 -- -- 82
2020-10-20 06:00:00 12.7 4 Sudoeste 6 Sudoeste 0 -- -- 83
2020-10-20 05:00:00 12.5 2 Sudeste 12 Oeste 0 -- -- 83
2020-10-20 04:00:00 12.3 4 Sudoeste 9 Sudoeste 0 -- -- 81
2020-10-20 03:00:00 12.4 7 Sudoeste 10 Sudoeste 0 -- -- 81
2020-10-20 02:00:00 12.4 5 Sudoeste 10 Oeste 0 -- -- 82
2020-10-20 01:00:00 12.3 2 Sur 6 Sudoeste 0 -- -- 78
2020-10-20 00:00:00 12.7 4 Sudoeste 7 Sudoeste 0 -- -- 76
2020-10-19 23:00:00 14.1 4 Sudoeste 14 Nordeste 0 -- -- 71
2020-10-19 22:00:00 15.1 10 Nordeste 19 Este 0 -- -- 72
2020-10-19 21:00:00 16.6 13 Este 20 Este 0 -- -- 65
2020-10-19 20:00:00 18.4 16 Nordeste 23 Este 0 -- -- 59
2020-10-19 19:00:00 22.3 17 Sudeste 32 Nordeste 0 -- -- 43
2020-10-19 18:00:00 22.7 19 Nordeste 37 Nordeste 0 -- -- 48
2020-10-19 17:00:00 23.3 23 Nordeste 33 Nordeste 0 -- -- 48
2020-10-19 16:00:00 23.8 15 Nordeste 26 Este 0 -- -- 43
2020-10-19 15:00:00 22.3 10 Nordeste 20 Este 0 -- -- 46
2020-10-19 14:00:00 19.6 8 Este 21 Este 0 -- -- 48
2020-10-19 13:00:00 17 9 Este 14 Nordeste 0 -- -- 51
2020-10-19 12:00:00 15.2 5 Nordeste 10 Nordeste 0 -- -- 54
2020-10-19 11:00:00 13.2 4 Nordeste 8 Este 0 -- -- 62
2020-10-19 10:00:00 9.6 4 Sudoeste 8 Sudoeste 0 -- -- 64
2020-10-19 09:00:00 5.8 5 Sudoeste 9 Sudoeste 0 -- -- 76
2020-10-19 08:00:00 5.2 4 Sudoeste 10 Sudoeste 0 -- -- 77
2020-10-19 07:00:00 5.8 5 Sudoeste 12 Sudoeste 0 -- -- 75
2020-10-19 06:00:00 6 10 Sudoeste 13 Sudoeste 0 -- -- 73
2020-10-19 05:00:00 6.8 5 Sudoeste 10 Sudoeste 0 -- -- 70
2020-10-19 04:00:00 7.6 8 Sudoeste 10 Sudoeste 0 -- -- 68
2020-10-19 03:00:00 8.4 5 Sudoeste 11 Sudoeste 0 -- -- 65
2020-10-19 02:00:00 8.5 7 Sudoeste 12 Sudoeste 0 -- -- 64
2020-10-19 01:00:00 8.8 5 Sudoeste 9 Sudoeste 0 -- -- 62
2020-10-19 00:00:00 9.3 2 Sur 11 Este 0 -- -- 60
2020-10-18 23:00:00 11.2 10 Sudoeste 12 Sudoeste 0 -- -- 56
2020-10-18 22:00:00 11.8 6 Sudoeste 12 Sudoeste 0 -- -- 54
2020-10-18 21:00:00 13.4 8 Sudoeste 11 Sudoeste 0 -- -- 49
2020-10-18 20:00:00 15.7 4 Sur 7 Sudeste 0 -- -- 42
2020-10-18 19:00:00 18 5 Este 9 Este 0 -- -- 40
2020-10-18 18:00:00 19.3 5 Nordeste 10 Nordeste 0 -- -- 38
2020-10-18 17:00:00 19.9 4 Nordeste 13 Nordeste 0 -- -- 37
2020-10-18 16:00:00 21.1 3 Norte 13 Nordeste 0 -- -- 35
2020-10-18 15:00:00 20.5 4 Nordeste 14 Este 0 -- -- 36
2020-10-18 14:00:00 19.5 5 Nordeste 12 Nordeste 0 -- -- 37
2020-10-18 13:00:00 17.2 7 Nordeste 12 Nordeste 0 -- -- 43
2020-10-18 12:00:00 15.3 4 Nordeste 10 Nordeste 0 -- -- 46
2020-10-18 11:00:00 12.7 6 Nordeste 12 Nordeste 0 -- -- 54
2020-10-18 10:00:00 11.1 2 Nordeste 8 Sudoeste 0 -- -- 54
2020-10-18 09:00:00 7.4 4 Sudoeste 10 Sudoeste 0 -- -- 64
2020-10-18 08:00:00 6 6 Sudoeste 10 Sudoeste 0 -- -- 68
2020-10-18 07:00:00 6.6 7 Sudoeste 10 Sudoeste 0 -- -- 66
2020-10-18 06:00:00 7.6 7 Sudoeste 10 Sudoeste 0 -- -- 63
2020-10-18 05:00:00 8.1 5 Sudoeste 8 Sudoeste 0 -- -- 62
2020-10-18 04:00:00 8.8 3 Nordeste 5 Este 0 -- -- 60
2020-10-18 03:00:00 8.8 2 Este 18 Sudoeste 0 -- -- 59
2020-10-18 02:00:00 11.5 15 Sudoeste 24 Sudoeste 0 -- -- 52
2020-10-18 01:00:00 11.1 17 Sudoeste 24 Oeste 0 -- -- 54
2020-10-18 00:00:00 10.2 15 Sudoeste 20 Oeste 0 -- -- 57
2020-10-17 23:00:00 10.8 14 Sudoeste 19 Sudoeste 0 -- -- 54
2020-10-17 22:00:00 11.7 12 Sudoeste 17 Sudoeste 0 -- -- 51
2020-10-17 21:00:00 12.6 8 Sudoeste 11 Sudoeste 0 -- -- 47
2020-10-17 20:00:00 15.2 3 Sudeste 6 Nordeste 0 -- -- 41
2020-10-17 19:00:00 17.5 0 Calma 10 Nordeste 0 -- -- 39
2020-10-17 18:00:00 19.4 3 Norte 14 Noroeste 0 -- -- 36
2020-10-17 17:00:00 20 4 Norte 15 Norte 0 -- -- 34
2020-10-17 16:00:00 20.6 6 Nordeste 21 Nordeste 0 -- -- 34
2020-10-17 15:00:00 20.1 5 Norte 14 Noroeste 0 -- -- 35
2020-10-17 14:00:00 18.4 5 Nordeste 14 Nordeste 0 -- -- 38
2020-10-17 13:00:00 16.8 4 Nordeste 12 Nordeste 0 -- -- 42
2020-10-17 12:00:00 14.7 3 Nordeste 11 Nordeste 0 -- -- 50
2020-10-17 11:00:00 12.1 5 Nordeste 8 Nordeste 0 -- -- 54
2020-10-17 10:00:00 9.2 0 Calma 5 Sudoeste 0 -- -- 63
2020-10-17 09:00:00 5.3 4 Oeste 8 Sudoeste 0 -- -- 74
2020-10-17 08:00:00 3.8 5 Sudoeste 8 Sudoeste 0 -- -- 80
2020-10-17 07:00:00 4.6 0 Calma 9 Sudoeste 0 -- -- 77
2020-10-17 06:00:00 5.2 7 Sudoeste 11 Sudoeste 0 -- -- 75
2020-10-17 05:00:00 5.9 10 Sudoeste 17 Sudoeste 0 -- -- 73
2020-10-17 04:00:00 6.2 12 Sudoeste 16 Sudoeste 0 -- -- 72
2020-10-17 03:00:00 6.7 12 Sudoeste 18 Sudoeste 0 -- -- 70
2020-10-17 02:00:00 7.3 13 Sudoeste 19 Sudoeste 0 -- -- 68
2020-10-17 01:00:00 8 10 Sudoeste 14 Sudoeste 0 -- -- 66
2020-10-17 00:00:00 9.2 8 Sudoeste 12 Sudoeste 0 -- -- 62
2020-10-16 23:00:00 10.2 8 Oeste 21 Oeste 0 -- -- 59
2020-10-16 22:00:00 10.2 9 Sudoeste 14 Sudoeste 0 -- -- 58
2020-10-16 21:00:00 11.2 5 Sudoeste 13 Oeste 0 -- -- 53
2020-10-16 20:00:00 13 4 Noroeste 14 Noroeste 0 -- -- 48
2020-10-16 19:00:00 15 4 Noroeste 18 Noroeste 0 -- -- 43
2020-10-16 18:00:00 16.9 6 Noroeste 25 Noroeste 0 -- -- 39
2020-10-16 17:00:00 17.4 9 Noroeste 28 Noroeste 0 -- -- 38
2020-10-16 16:00:00 18.3 7 Noroeste 26 Norte 0 -- -- 36
2020-10-16 15:00:00 18.8 9 Noroeste 31 Norte 0 -- -- 35
2020-10-16 14:00:00 17.6 8 Noroeste 28 Noroeste 0 -- -- 38
2020-10-16 13:00:00 16.7 8 Noroeste 37 Oeste 0 -- -- 40
2020-10-16 12:00:00 15.3 10 Noroeste 29 Norte 0 -- -- 44
2020-10-16 11:00:00 13.8 7 Noroeste 37 Noroeste 0 -- -- 48
2020-10-16 10:00:00 11.4 16 Oeste 30 Oeste 0 -- -- 54
2020-10-16 09:00:00 8.3 15 Oeste 26 Oeste 0 -- -- 63
2020-10-16 08:00:00 7.9 14 Sudoeste 23 Oeste 0 -- -- 66
2020-10-16 07:00:00 7.8 14 Oeste 25 Oeste 0 -- -- 68
2020-10-16 06:00:00 7.7 19 Oeste 27 Oeste 0 -- -- 67
2020-10-16 05:00:00 7.8 18 Oeste 28 Oeste 0 -- -- 66
2020-10-16 04:00:00 8.4 20 Oeste 33 Oeste 0 -- -- 63
2020-10-16 03:00:00 8.4 21 Oeste 31 Oeste 0 -- -- 63
2020-10-16 02:00:00 8.5 18 Oeste 30 Oeste 0 -- -- 62
2020-10-16 01:00:00 8.6 16 Oeste 30 Oeste 0 -- -- 64
2020-10-16 00:00:00 8.9 15 Oeste 32 Oeste 0 -- -- 63
2020-10-15 23:00:00 9.6 21 Oeste 44 Oeste 0 -- -- 61
2020-10-15 22:00:00 9.9 19 Oeste 34 Oeste 0 -- -- 59
2020-10-15 21:00:00 10.5 15 Oeste 37 Oeste 0 -- -- 56
2020-10-15 20:00:00 11.6 14 Noroeste 36 Oeste 0 -- -- 51
2020-10-15 19:00:00 13.3 12 Noroeste 36 Noroeste 0 -- -- 45
2020-10-15 18:00:00 15.4 14 Noroeste 39 Noroeste 0 -- -- 41
2020-10-15 17:00:00 16.3 13 Noroeste 46 Noroeste 0 -- -- 39
2020-10-15 16:00:00 17.8 17 Noroeste 41 Noroeste 0 -- -- 41
2020-10-15 15:00:00 18 18 Noroeste 42 Noroeste 0 -- -- 41
2020-10-15 14:00:00 17.7 15 Noroeste 46 Noroeste 0 -- -- 42
2020-10-15 13:00:00 17.2 16 Noroeste 48 Noroeste 0 -- -- 41
2020-10-15 12:00:00 15.8 17 Noroeste 51 Oeste 0 -- -- 44
2020-10-15 11:00:00 14.3 19 Noroeste 50 Noroeste 0 -- -- 48
2020-10-15 10:00:00 12.1 25 Oeste 43 Oeste 0 -- -- 51
2020-10-15 09:00:00 9.8 15 Oeste 36 Oeste 0 -- -- 57
2020-10-15 08:00:00 9.1 19 Oeste 36 Oeste 0 -- -- 59
2020-10-15 07:00:00 8.8 17 Oeste 31 Oeste 0 -- -- 60
2020-10-15 06:00:00 9 14 Oeste 37 Oeste 0 -- -- 61
2020-10-15 05:00:00 9.3 17 Oeste 35 Noroeste 0 -- -- 62
2020-10-15 04:00:00 9.4 15 Noroeste 38 Oeste 0 -- -- 61
2020-10-15 03:00:00 9.6 22 Oeste 36 Oeste 0 -- -- 61
2020-10-15 02:00:00 9.6 23 Oeste 36 Oeste 0 -- -- 62
2020-10-15 01:00:00 9.8 23 Oeste 41 Oeste 0 -- -- 62
2020-10-15 00:00:00 9.7 20 Oeste 30 Oeste 0 -- -- 63
2020-10-14 23:00:00 9.9 15 Oeste 27 Oeste 0 -- -- 63
2020-10-14 22:00:00 10.3 10 Oeste 26 Noroeste 0 -- -- 64
2020-10-14 21:00:00 11 10 Noroeste 30 Oeste 0 -- -- 64
2020-10-14 20:00:00 11.8 10 Noroeste 33 Oeste 0 -- -- 61
2020-10-14 19:00:00 13.3 10 Noroeste 48 Noroeste 0 -- -- 53
2020-10-14 18:00:00 15 13 Noroeste 40 Oeste 0 -- -- 48
2020-10-14 17:00:00 16.7 12 Noroeste 48 Noroeste 0 -- -- 43
2020-10-14 16:00:00 17.8 13 Noroeste 49 Oeste 0 -- -- 43
2020-10-14 15:00:00 18 13 Noroeste 51 Noroeste 0 -- -- 41
2020-10-14 14:00:00 18.5 17 Noroeste 42 Noroeste 0 -- -- 38
2020-10-14 13:00:00 16.4 10 Noroeste 33 Noroeste 0 -- -- 46
2020-10-14 12:00:00 16.1 13 Noroeste 38 Oeste 0 -- -- 50
2020-10-14 11:00:00 15.5 10 Noroeste 31 Noroeste 0 -- -- 56
2020-10-14 10:00:00 14.3 11 Noroeste 33 Noroeste 0 -- -- 58
2020-10-14 09:00:00 11.2 19 Oeste 27 Oeste 0 -- -- 70
2020-10-14 08:00:00 10.1 10 Oeste 18 Oeste 0 -- -- 78
2020-10-14 07:00:00 11.2 12 Oeste 26 Oeste 0.2 -- -- 77
2020-10-14 06:00:00 11.5 12 Oeste 24 Oeste 0 -- -- 76
2020-10-14 05:00:00 12.5 6 Noroeste 26 Oeste 0 -- -- 67
2020-10-14 04:00:00 12.9 13 Oeste 23 Oeste 0 -- -- 68
2020-10-14 03:00:00 13.1 6 Noroeste 23 Oeste 0 -- -- 67
2020-10-14 02:00:00 13.7 8 Noroeste 26 Oeste 0 -- -- 66
2020-10-14 01:00:00 14.1 16 Oeste 35 Oeste 0 -- -- 59
2020-10-14 00:00:00 14.3 13 Oeste 33 Oeste 0 -- -- 58
2020-10-13 23:00:00 14.5 12 Oeste 23 Oeste 0 -- -- 56
2020-10-13 22:00:00 14.3 6 Oeste 25 Noroeste 0 -- -- 56
2020-10-13 21:00:00 15.3 8 Noroeste 25 Noroeste 0 -- -- 52
2020-10-13 20:00:00 16.7 8 Noroeste 30 Noroeste 0 -- -- 47
2020-10-13 19:00:00 17.9 8 Noroeste 31 Noroeste 0 -- -- 48
2020-10-13 18:00:00 19.2 10 Noroeste 34 Norte 0 -- -- 46
2020-10-13 17:00:00 21.1 13 Noroeste 34 Norte 0 -- -- 44
2020-10-13 16:00:00 21.7 8 Noroeste 34 Norte 0 -- -- 44
2020-10-13 15:00:00 21.5 12 Noroeste 34 Noroeste 0 -- -- 46
2020-10-13 14:00:00 20.6 13 Noroeste 41 Norte 0 -- -- 48
2020-10-13 13:00:00 21.2 13 Noroeste 33 Norte 0 -- -- 47
2020-10-13 12:00:00 20.7 9 Noroeste 30 Oeste 0 -- -- 50
2020-10-13 11:00:00 -- -- -- -- -- -- -- -- --
2020-10-13 10:00:00 -- -- -- -- -- -- -- -- --
2020-10-13 09:00:00 14.8 14 Oeste 24 Oeste 0 -- -- 61
2020-10-13 08:00:00 13.9 18 Oeste 28 Oeste 0 -- -- 61
2020-10-13 07:00:00 12.7 10 Oeste 22 Oeste 0 -- -- 67
2020-10-13 06:00:00 10.4 8 Sudoeste 11 Sudoeste 0 -- -- 78
2020-10-13 05:00:00 11.3 3 Sur 9 Noroeste 0 -- -- 73
2020-10-13 04:00:00 12.8 0 Calma 4 Norte 0 -- -- 57
2020-10-13 03:00:00 12.5 0 Calma 9 Noroeste 0 -- -- 57
2020-10-13 02:00:00 12.6 0 Calma 12 Oeste 0 -- -- 56
2020-10-13 01:00:00 -- -- -- -- -- -- -- -- --
2020-10-13 00:00:00 14 23 Oeste 37 Oeste 0 -- -- 51
2020-10-12 23:00:00 13.1 12 Sudoeste 23 Sudoeste 0 -- -- 54
2020-10-12 22:00:00 13.1 17 Oeste 30 Oeste 0 -- -- 55
2020-10-12 21:00:00 13.6 15 Oeste 26 Noroeste 0 -- -- 55
2020-10-12 20:00:00 14 7 Noroeste 42 Oeste 0 -- -- 55
2020-10-12 19:00:00 15.5 11 Noroeste 42 Noroeste 0 -- -- 50
2020-10-12 18:00:00 17.1 13 Noroeste 42 Noroeste 0 -- -- 46
2020-10-12 17:00:00 18.1 16 Noroeste 45 Oeste 0 -- -- 43
2020-10-12 16:00:00 19.2 16 Noroeste 49 Oeste 0 -- -- 43
2020-10-12 15:00:00 19 14 Noroeste 44 Noroeste 0 -- -- 42
2020-10-12 14:00:00 17.7 11 Noroeste 39 Noroeste 0 -- -- 45
2020-10-12 13:00:00 18.2 11 Noroeste 41 Noroeste 0 -- -- 43
2020-10-12 12:00:00 17 14 Noroeste 39 Oeste 0 -- -- 45
2020-10-12 11:00:00 15.7 19 Noroeste 50 Noroeste 0 -- -- 51
2020-10-12 10:00:00 14 16 Oeste 37 Oeste 0 -- -- 58
2020-10-12 09:00:00 11.4 15 Oeste 32 Oeste 0 -- -- 66
2020-10-12 08:00:00 10.3 18 Sudoeste 28 Noroeste 0 -- -- 68
2020-10-12 07:00:00 10.5 17 Oeste 36 Noroeste 0 -- -- 67
2020-10-12 06:00:00 10.5 14 Oeste 39 Oeste 0 -- -- 69
2020-10-12 05:00:00 10.7 14 Noroeste 44 Oeste 0 -- -- 68
2020-10-12 04:00:00 -- -- -- -- -- -- -- -- --
2020-10-12 03:00:00 10.9 14 Noroeste 46 Noroeste 0 -- -- 67
2020-10-12 02:00:00 11.1 22 Oeste 49 Oeste 0 -- -- 66
2020-10-12 01:00:00 11.2 21 Oeste 50 Oeste 0 -- -- 65
2020-10-12 00:00:00 11.4 28 Oeste 52 Oeste 0 -- -- 66
2020-10-11 23:00:00 11.8 26 Oeste 44 Oeste 0 -- -- 66
2020-10-11 22:00:00 12.3 16 Oeste 41 Oeste 0 -- -- 63
2020-10-11 21:00:00 -- -- -- -- -- -- -- -- --
2020-10-11 20:00:00 -- -- -- -- -- -- -- -- --
2020-10-11 19:00:00 14.9 21 Noroeste 58 Noroeste 0 -- -- 53
2020-10-11 18:00:00 16.5 17 Noroeste 62 Noroeste 0 -- -- 46
2020-10-11 17:00:00 17.8 18 Noroeste 53 Noroeste 0 -- -- 42
2020-10-11 16:00:00 18.9 15 Noroeste 49 Norte 0 -- -- 39
2020-10-11 15:00:00 19.6 17 Noroeste 48 Oeste 0 -- -- 37
2020-10-11 14:00:00 18.1 17 Noroeste 51 Norte 0 -- -- 40
2020-10-11 13:00:00 17.5 16 Noroeste 49 Noroeste 0 -- -- 42
2020-10-11 12:00:00 14.4 10 Noroeste -- -- 0 -- -- 50
2020-10-11 11:00:00 14.9 12 Noroeste 55 Noroeste 0 -- -- 49
2020-10-11 10:00:00 13.2 23 Oeste 48 Oeste 0 -- -- 54
2020-10-11 09:00:00 11.5 22 Oeste 44 Noroeste 0 -- -- 57
2020-10-11 08:00:00 10.6 17 Noroeste 40 Oeste 0 -- -- 58
2020-10-11 07:00:00 10.7 18 Oeste 44 Oeste 0 -- -- 60
2020-10-11 06:00:00 11.2 14 Noroeste 44 Noroeste 0 -- -- 62
2020-10-11 05:00:00 11.7 14 Noroeste 43 Oeste 0 -- -- 62
2020-10-11 04:00:00 12.1 16 Oeste 40 Noroeste 0 -- -- 64
2020-10-11 03:00:00 12.6 18 Oeste 47 Oeste 0 -- -- 63
2020-10-11 02:00:00 12.8 27 Oeste 45 Oeste 0 -- -- 62
2020-10-11 01:00:00 13.1 24 Oeste 46 Oeste 0 -- -- 62
2020-10-11 00:00:00 13.5 24 Oeste 47 Oeste 0 -- -- 60
2020-10-10 23:00:00 14.1 22 Oeste 51 Oeste 0 -- -- 55
2020-10-10 22:00:00 15.1 20 Oeste 41 Oeste 0 -- -- 53
2020-10-10 21:00:00 15.8 17 Oeste 38 Oeste 0 -- -- 54
2020-10-10 20:00:00 16.6 14 Noroeste 38 Noroeste 0 -- -- 53
2020-10-10 19:00:00 18.5 14 Noroeste 39 Oeste 0 -- -- 48
2020-10-10 18:00:00 21.1 15 Noroeste 41 Noroeste 0 -- -- 45
2020-10-10 17:00:00 23.1 12 Noroeste 39 Noroeste 0 -- -- 43
2020-10-10 16:00:00 23.4 9 Noroeste 34 Norte 0 -- -- 47
2020-10-10 15:00:00 25.5 10 Noroeste 32 Oeste 0 -- -- 40
2020-10-10 14:00:00 25.4 8 Noroeste 32 Oeste 0 -- -- 39
2020-10-10 13:00:00 24 8 Noroeste 24 Oeste 0 -- -- 43
2020-10-10 12:00:00 22 9 Noroeste 32 Oeste 0 -- -- 49
2020-10-10 11:00:00 20.1 10 Noroeste 31 Oeste 0 -- -- 55
2020-10-10 10:00:00 17.9 14 Oeste 32 Oeste 0 -- -- 63
2020-10-10 09:00:00 16.7 19 Oeste 38 Oeste 0 -- -- 66
2020-10-10 08:00:00 15.9 16 Oeste 32 Oeste 0 -- -- 69
2020-10-10 07:00:00 15 12 Oeste 24 Oeste 0 -- -- 74
2020-10-10 06:00:00 15 13 Oeste 22 Oeste 0 -- -- 75
2020-10-10 05:00:00 15.7 15 Oeste 23 Sudoeste 0 -- -- 74
2020-10-10 04:00:00 16.1 15 Oeste 24 Sudoeste 0 -- -- 73
2020-10-10 03:00:00 16.6 14 Sudoeste 20 Sudoeste 0 -- -- 72
2020-10-10 02:00:00 16.9 13 Sudoeste 24 Oeste 0 -- -- 71
2020-10-10 01:00:00 17.8 16 Oeste 26 Oeste 0 -- -- 71
2020-10-10 00:00:00 18.4 11 Oeste 25 Oeste 0 -- -- 69
2020-10-09 23:00:00 18.3 10 Oeste 15 Noroeste 0 -- -- 65
2020-10-09 22:00:00 18.4 11 Sudoeste 15 Sudoeste 0 -- -- 64
2020-10-09 21:00:00 20.4 7 Sudoeste 9 Sudoeste 0 -- -- 58
2020-10-09 20:00:00 22.4 4 Sur 6 Sudeste 0 -- -- 53
2020-10-09 19:00:00 24.1 3 Este 8 Nordeste 0 -- -- 51
2020-10-09 18:00:00 25.2 3 Norte 13 Nordeste 0 -- -- 49
2020-10-09 17:00:00 25.1 7 Este 14 Nordeste 0 -- -- 50
2020-10-09 16:00:00 25.3 5 Norte 13 Nordeste 0 -- -- 51
2020-10-09 15:00:00 23.6 5 Nordeste 15 Nordeste 0 -- -- 60
2020-10-09 14:00:00 22.4 7 Este 13 Este 0 -- -- 65
2020-10-09 13:00:00 22.3 4 Noroeste 13 Este 0 -- -- 65
2020-10-09 12:00:00 20.2 4 Norte 8 Norte 0 -- -- 71
2020-10-09 11:00:00 16.9 3 Sudoeste 8 Oeste 0 -- -- 86
2020-10-09 10:00:00 15.2 5 Oeste 8 Oeste 0 -- -- 89
2020-10-09 09:00:00 14 6 Sudoeste 12 Sudoeste 0 -- -- 89
2020-10-09 08:00:00 14.5 4 Sudoeste 10 Oeste 0 -- -- 85
2020-10-09 07:00:00 15 5 Oeste 11 Sudoeste 0 -- -- 93
2020-10-09 06:00:00 15.8 7 Oeste 11 Sudoeste 0 -- -- 90
2020-10-09 05:00:00 15.4 6 Sudoeste 11 Sudoeste 0 -- -- 89
2020-10-09 04:00:00 14.4 5 Sudoeste 9 Sudoeste 0 -- -- 82
2020-10-09 03:00:00 14.9 5 Oeste 9 Oeste 0 -- -- 76
2020-10-09 02:00:00 15.6 7 Oeste 12 Oeste 0 -- -- 72
2020-10-09 01:00:00 16.1 5 Sudoeste 9 Sudoeste 0 -- -- 69
2020-10-09 00:00:00 17.7 3 Sudoeste 8 Oeste 0 -- -- 64
2020-10-08 23:00:00 18.5 4 Oeste 10 Sudoeste 0 -- -- 61
2020-10-08 22:00:00 19.6 6 Sudoeste 10 Sudoeste 0 -- -- 56
2020-10-08 21:00:00 20.8 6 Sudoeste 8 Sudoeste 0 -- -- 52
2020-10-08 20:00:00 22.8 0 Calma 8 Este 0 -- -- 47
2020-10-08 19:00:00 24.6 8 Este 13 Este 0 -- -- 43
2020-10-08 18:00:00 25.2 8 Este 18 Este 0 -- -- 42
2020-10-08 17:00:00 25.5 6 Nordeste 17 Este 0 -- -- 43
2020-10-08 16:00:00 25.8 6 Nordeste 18 Nordeste 0 -- -- 44
2020-10-08 15:00:00 25.1 7 Nordeste 18 Nordeste 0 -- -- 46
2020-10-08 14:00:00 24 8 Este 17 Nordeste 0 -- -- 48
2020-10-08 13:00:00 21.9 6 Nordeste 16 Este 0 -- -- 54
2020-10-08 12:00:00 20.9 8 Este 14 Este 0 -- -- 56
2020-10-08 11:00:00 19.2 5 Nordeste 11 Nordeste 0 -- -- 62
2020-10-08 10:00:00 16.8 3 Nordeste 10 Sudoeste 0 -- -- 69
2020-10-08 09:00:00 12.9 6 Sudoeste 14 Sudoeste 0 -- -- 82
2020-10-08 08:00:00 11.6 9 Sudoeste 19 Sudoeste 0 -- -- 86
2020-10-08 07:00:00 12.5 14 Sudoeste 19 Sudoeste 0 -- -- 84
2020-10-08 06:00:00 12.9 8 Sudoeste 13 Oeste 0 -- -- 82
2020-10-08 05:00:00 13.8 12 Sudoeste 19 Sudoeste 0 -- -- 79
2020-10-08 04:00:00 15.2 11 Sudoeste 19 Oeste 0 -- -- 73
2020-10-08 03:00:00 16.1 13 Oeste 23 Sudoeste 0 -- -- 69
2020-10-08 02:00:00 16.6 8 Sudoeste 22 Sudoeste 0 -- -- 68
2020-10-08 01:00:00 17.2 11 Oeste 26 Oeste 0 -- -- 67
2020-10-08 00:00:00 17.8 14 Oeste 28 Oeste 0 -- -- 66
2020-10-07 23:00:00 18.2 20 Oeste 29 Oeste 0 -- -- 64
2020-10-07 22:00:00 18.8 18 Oeste 27 Oeste 0 -- -- 64
2020-10-07 21:00:00 20 9 Noroeste 27 Noroeste 0 -- -- 60
2020-10-07 20:00:00 21.1 6 Noroeste 22 Norte 0 -- -- 56
2020-10-07 19:00:00 23.3 6 Noroeste 31 Noroeste 0 -- -- 51
2020-10-07 18:00:00 24.9 10 Noroeste 39 Norte 0 -- -- 48
2020-10-07 17:00:00 26.1 12 Noroeste 37 Noroeste 0 -- -- 45
2020-10-07 16:00:00 26.3 10 Noroeste 43 Norte 0 -- -- 45
2020-10-07 15:00:00 25.7 12 Noroeste 39 Norte 0 -- -- 46
2020-10-07 14:00:00 26.5 18 Noroeste 39 Oeste 0 -- -- 44
2020-10-07 13:00:00 25.3 11 Noroeste 34 Noroeste 0 -- -- 46
2020-10-07 12:00:00 24.6 13 Noroeste 36 Oeste 0 -- -- 48
2020-10-07 11:00:00 23.6 11 Noroeste 37 Oeste 0 -- -- 49
2020-10-07 10:00:00 21.1 19 Oeste 29 Oeste 0 -- -- 55
2020-10-07 09:00:00 16.8 15 Sudoeste 20 Sudoeste 0 -- -- 66
2020-10-07 08:00:00 16.6 15 Sudoeste 21 Sudoeste 0 -- -- 67
2020-10-07 07:00:00 16.7 10 Sudoeste 18 Oeste 0 -- -- 70
2020-10-07 06:00:00 16.9 11 Oeste 22 Oeste 0 -- -- 70
2020-10-07 05:00:00 16.2 6 Noroeste 16 Noroeste 0 -- -- 75
2020-10-07 04:00:00 16.1 3 Oeste 9 Oeste 0 -- -- 73
2020-10-07 03:00:00 16 4 Sudoeste 8 Oeste 0 -- -- 73
2020-10-07 02:00:00 16.4 2 Sur 11 Sudoeste 0 -- -- 71
2020-10-07 01:00:00 16.9 8 Sudoeste 12 Sudoeste 0 -- -- 70
2020-10-07 00:00:00 16.9 7 Sudoeste 14 Sudoeste 0 -- -- 70
2020-10-06 23:00:00 18.1 11 Sudoeste 14 Sudoeste 0 -- -- 66
2020-10-06 22:00:00 19.8 7 Sudoeste 14 Sudoeste 0 -- -- 60
2020-10-06 21:00:00 20.6 8 Oeste 17 Noroeste 0 -- -- 57
2020-10-06 20:00:00 22.3 4 Noroeste 18 Noroeste 0 -- -- 54
2020-10-06 19:00:00 25.2 7 Noroeste 30 Noroeste 0 -- -- 46
2020-10-06 18:00:00 27.2 6 Noroeste 25 Oeste 0 -- -- 41
2020-10-06 17:00:00 28.9 8 Noroeste 27 Oeste 0 -- -- 38
2020-10-06 16:00:00 27.5 8 Noroeste 26 Oeste 0 -- -- 41
2020-10-06 15:00:00 28.2 13 Oeste 30 Oeste 0 -- -- 39
2020-10-06 14:00:00 27 14 Oeste 33 Oeste 0 -- -- 42
2020-10-06 13:00:00 26.1 14 Oeste 30 Oeste 0 -- -- 43
2020-10-06 12:00:00 24.2 6 Noroeste 35 Oeste 0 -- -- 46
2020-10-06 11:00:00 22.1 17 Oeste 32 Oeste 0 -- -- 51
2020-10-06 10:00:00 18.4 8 Oeste 18 Oeste 0 -- -- 60
2020-10-06 09:00:00 13.9 7 Sudoeste 9 Sudoeste 0 -- -- 63
2020-10-06 08:00:00 12.6 2 Sudeste 7 Este 0 -- -- 61
2020-10-06 07:00:00 13 3 Oeste 10 Oeste 0 -- -- 59
2020-10-06 06:00:00 13.4 7 Sudoeste 15 Sudoeste 0 -- -- 56
2020-10-06 05:00:00 13.6 10 Sudoeste 21 Sudoeste 0 -- -- 56
2020-10-06 04:00:00 15.2 19 Sudoeste 34 Sudoeste 0 -- -- 51
2020-10-06 03:00:00 14 14 Sudoeste 19 Sudoeste 0 -- -- 52
2020-10-06 02:00:00 13.3 13 Sudoeste 21 Sudoeste 0 -- -- 55
2020-10-06 01:00:00 13.1 14 Sudoeste 22 Sudoeste 0 -- -- 57
2020-10-06 00:00:00 11.8 14 Sudoeste 18 Sudoeste 0 -- -- 65
2020-10-05 23:00:00 12.3 13 Sudoeste 18 Sudoeste 0 -- -- 64
2020-10-05 22:00:00 12.9 10 Sudoeste 15 Sudoeste 0 -- -- 61
2020-10-05 21:00:00 15.1 5 Sudoeste 9 Sudoeste 0 -- -- 53
2020-10-05 20:00:00 17 4 Norte 11 Noroeste 0 -- -- 48
2020-10-05 19:00:00 19.6 6 Norte 19 Norte 0 -- -- 42
2020-10-05 18:00:00 21.6 7 Noroeste 23 Norte 0 -- -- 38
2020-10-05 17:00:00 22.3 4 Noroeste 18 Noroeste 0 -- -- 35
2020-10-05 16:00:00 22.5 5 Noroeste 26 Norte 0 -- -- 35
2020-10-05 15:00:00 22.3 9 Noroeste 25 Norte 0 -- -- 36
2020-10-05 14:00:00 21.3 8 Noroeste 27 Norte 0 -- -- 39
2020-10-05 13:00:00 20.2 6 Noroeste 24 Noroeste 0 -- -- 44
2020-10-05 12:00:00 18.4 6 Noroeste 22 Noroeste 0 -- -- 49
2020-10-05 11:00:00 17 4 Noroeste 12 Noroeste 0 -- -- 53
2020-10-05 10:00:00 14.8 4 Oeste 8 Oeste 0 -- -- 59
2020-10-05 09:00:00 10.7 0 Calma 4 Este 0 -- -- 75
2020-10-05 08:00:00 8.6 2 Norte 8 Oeste 0 -- -- 81
2020-10-05 07:00:00 8.7 6 Oeste 11 Sudoeste 0 -- -- 80
2020-10-05 06:00:00 9.9 7 Sudoeste 15 Oeste 0 -- -- 77
2020-10-05 05:00:00 8.7 4 Oeste 10 Sudoeste 0 -- -- 81
2020-10-05 04:00:00 8.5 4 Sudoeste 9 Sudoeste 0 -- -- 83
2020-10-05 03:00:00 8.7 4 Sudoeste 7 Sudoeste 0 -- -- 81
2020-10-05 02:00:00 9.6 0 Calma 11 Sudoeste 0 -- -- 82
2020-10-05 01:00:00 10.3 3 Sur 11 Oeste 0 -- -- 80
2020-10-05 00:00:00 11.5 7 Sudoeste 13 Sudoeste 0 -- -- 76
2020-10-04 23:00:00 12.3 9 Sudoeste 18 Sudoeste 0 -- -- 73
2020-10-04 22:00:00 12.1 7 Sudoeste 16 Sudoeste 0 -- -- 78
2020-10-04 21:00:00 13 3 Oeste 15 Noroeste 0 -- -- 73
2020-10-04 20:00:00 14.6 11 Norte 30 Noroeste 0 -- -- 62
2020-10-04 19:00:00 16 4 Noroeste 25 Noroeste 0 -- -- 62
2020-10-04 18:00:00 16.2 12 Norte 72 Oeste 0 -- -- 59
2020-10-04 17:00:00 21 32 Oeste 55 Oeste 0 -- -- 39
2020-10-04 16:00:00 20.8 35 Oeste 56 Oeste 0 -- -- 36
2020-10-04 15:00:00 21.9 17 Oeste 41 Oeste 0 -- -- 36
2020-10-04 14:00:00 21.4 23 Oeste 54 Oeste 0 -- -- 36
2020-10-04 13:00:00 17.8 21 Oeste 37 Oeste 0 -- -- 44
2020-10-04 12:00:00 17.2 25 Oeste 43 Oeste 0 -- -- 44
2020-10-04 11:00:00 18 13 Oeste 29 Oeste 0 -- -- 41
2020-10-04 10:00:00 16 18 Oeste 25 Oeste 0 -- -- 45
2020-10-04 09:00:00 13 14 Sudoeste 23 Sudoeste 0 -- -- 52
2020-10-04 08:00:00 12.5 20 Sudoeste 35 Sudoeste 0 -- -- 52
2020-10-04 07:00:00 11.8 14 Oeste 22 Oeste 0 -- -- 54
2020-10-04 06:00:00 12.1 8 Sudoeste 23 Sudoeste 0 -- -- 52
2020-10-04 05:00:00 12.6 13 Sudoeste 23 Sudoeste 0 -- -- 51
2020-10-04 04:00:00 13.1 17 Sudoeste 25 Sudoeste 0 -- -- 48
2020-10-04 03:00:00 13.5 15 Sudoeste 30 Sudoeste 0 -- -- 47
2020-10-04 02:00:00 14.6 15 Oeste 27 Oeste 0 -- -- 44
2020-10-04 01:00:00 15 17 Oeste 31 Oeste 0 -- -- 43
2020-10-04 00:00:00 14.7 16 Sudoeste 26 Sudoeste 0 -- -- 46
2020-10-03 23:00:00 14.8 17 Sudoeste 24 Sudoeste 0 -- -- 49
2020-10-03 22:00:00 14.2 15 Sudoeste 19 Sudoeste 0 -- -- 53
2020-10-03 21:00:00 15.2 9 Sudoeste 22 Oeste 0 -- -- 48
2020-10-03 20:00:00 15.9 12 Oeste 29 Norte 0 -- -- 45
2020-10-03 19:00:00 18.1 11 Noroeste 39 Oeste 0 -- -- 39
2020-10-03 18:00:00 20.4 19 Noroeste 45 Oeste 0 -- -- 35
2020-10-03 17:00:00 21.8 14 Noroeste 46 Oeste 0 -- -- 33
2020-10-03 16:00:00 21.5 27 Oeste 55 Noroeste 0 -- -- 33
2020-10-03 15:00:00 20.5 22 Oeste 49 Oeste 0 -- -- 36
2020-10-03 14:00:00 18 24 Oeste 53 Oeste 0 -- -- 40
2020-10-03 13:00:00 18.1 26 Oeste 62 Oeste 0 -- -- 42
2020-10-03 12:00:00 15.1 27 Oeste 55 Oeste 0 -- -- 47
2020-10-03 11:00:00 14.6 37 Oeste 59 Oeste 0 -- -- 48
2020-10-03 10:00:00 13.4 34 Oeste 50 Oeste 0 -- -- 51
2020-10-03 09:00:00 11.9 28 Oeste 43 Oeste 0 -- -- 56
2020-10-03 08:00:00 10.5 23 Oeste 49 Oeste 0 -- -- 59
2020-10-03 07:00:00 10.6 28 Oeste 44 Oeste 0 -- -- 61
2020-10-03 06:00:00 10.3 24 Oeste 36 Oeste 0 -- -- 62
2020-10-03 05:00:00 10.8 21 Oeste 38 Oeste 0 -- -- 59
2020-10-03 04:00:00 10.9 24 Oeste 48 Oeste 0 -- -- 58
2020-10-03 03:00:00 11 31 Oeste 46 Oeste 0 -- -- 59
2020-10-03 02:00:00 10.9 28 Oeste 46 Oeste 0 -- -- 58
2020-10-03 01:00:00 10.3 28 Oeste 42 Oeste 0 -- -- 60
2020-10-03 00:00:00 9.9 14 Oeste 23 Oeste 0 -- -- 65
2020-10-02 23:00:00 9.7 13 Sudoeste 23 Oeste 0 -- -- 68
2020-10-02 22:00:00 10.3 20 Oeste 31 Oeste 0 -- -- 66
2020-10-02 21:00:00 10.3 18 Oeste 29 Oeste 0 -- -- 68
2020-10-02 20:00:00 11.1 20 Oeste 35 Oeste 0 -- -- 69
2020-10-02 19:00:00 11.8 23 Oeste 36 Oeste 0 -- -- 70
2020-10-02 18:00:00 10.8 22 Sudoeste 51 Oeste 0.4 -- -- 78
2020-10-02 17:00:00 10.8 22 Oeste 39 Oeste 0 -- -- 77
2020-10-02 16:00:00 10 18 Sudoeste 29 Sudoeste 0.4 -- -- 87
2020-10-02 15:00:00 9.3 18 Sudoeste 23 Sudoeste 1.6 -- -- 92
2020-10-02 14:00:00 9.9 8 Noroeste 47 Norte 0.8 -- -- 86
2020-10-02 13:00:00 12.2 15 Noroeste 55 Noroeste 0.4 -- -- 81
2020-10-02 12:00:00 15.9 23 Oeste 57 Noroeste 0.4 -- -- 66
2020-10-02 11:00:00 20.8 25 Oeste 58 Oeste 0 -- -- 49
2020-10-02 10:00:00 21 22 Oeste 39 Oeste 0 -- -- 48
2020-10-02 09:00:00 20.1 20 Sudoeste 37 Sudoeste 0 -- -- 48
2020-10-02 08:00:00 20.1 19 Sudoeste 41 Sudoeste 0 -- -- 47
2020-10-02 07:00:00 20.4 23 Sudoeste 45 Oeste 0 -- -- 45
2020-10-02 06:00:00 20.6 24 Sudoeste 50 Sudoeste 0 -- -- 44
2020-10-02 05:00:00 20.6 26 Sudoeste 46 Sudoeste 0 -- -- 44
2020-10-02 04:00:00 19.3 4 Sur 17 Sudoeste 0 -- -- 50
2020-10-02 03:00:00 17.6 10 Sudoeste 17 Sudoeste 0 -- -- 54
2020-10-02 02:00:00 16.4 10 Sudoeste 15 Sudoeste 0 -- -- 59
2020-10-02 01:00:00 15.8 3 Sudoeste 19 Oeste 0 -- -- 61
2020-10-02 00:00:00 15.6 7 Sudoeste 12 Oeste 0 -- -- 61
2020-10-01 23:00:00 16.7 5 Sudoeste 13 Sudoeste 0 -- -- 58
2020-10-01 22:00:00 18.4 5 Sudoeste 9 Sudoeste 0 -- -- 52
2020-10-01 21:00:00 20 2 Sudeste 7 Este 0 -- -- 48
2020-10-01 20:00:00 21.1 4 Este 13 Norte 0 -- -- 47
2020-10-01 19:00:00 23.5 7 Norte 25 Noroeste 0 -- -- 42
2020-10-01 18:00:00 24.8 6 Noroeste 19 Noroeste 0 -- -- 38
2020-10-01 17:00:00 25.9 6 Noroeste 27 Noroeste 0 -- -- 37
2020-10-01 16:00:00 27.5 8 Noroeste 22 Noroeste 0 -- -- 33
2020-10-01 15:00:00 27.5 6 Noroeste 23 Noroeste 0 -- -- 33
2020-10-01 14:00:00 27 6 Norte 23 Oeste 0 -- -- 33
2020-10-01 13:00:00 26.7 7 Noroeste 26 Oeste 0 -- -- 33
2020-10-01 12:00:00 25.5 9 Noroeste 35 Oeste 0 -- -- 35
2020-10-01 11:00:00 23.3 14 Oeste 41 Oeste 0 -- -- 37
2020-10-01 10:00:00 20.1 5 Norte 17 Oeste 0 -- -- 48
2020-10-01 09:00:00 14.2 8 Oeste 16 Oeste 0 -- -- 73
2020-10-01 08:00:00 12 2 Oeste 7 Sudoeste 0 -- -- 76
2020-10-01 07:00:00 12.4 0 Calma 4 Sur 0 -- -- 65
2020-10-01 06:00:00 12.2 2 Sur 9 Sudoeste 0 -- -- 63
2020-10-01 05:00:00 13.1 4 Sudoeste 5 Sudoeste 0 -- -- 64
2020-10-01 04:00:00 13.7 0 Calma 6 Sudoeste 0 -- -- 59
2020-10-01 03:00:00 14 5 Sudoeste 8 Sudoeste 0 -- -- 55
2020-10-01 02:00:00 14.5 3 Sudoeste 5 Oeste 0 -- -- 54
2020-10-01 01:00:00 15.6 0 Calma 7 Norte 0 -- -- 50
2020-10-01 00:00:00 16.4 3 Sudeste 9 Sudoeste 0 -- -- 49